Time;durP1;ratioP1;P1;durP2;ratioP2;P2;SDS_P1;SDS_P2;PMS_P1;PMS_P2;Temp;Humidity;BMP_temperature;BMP_pressure;BME280_temperature;BME280_humidity;BME280_pressure;Samples;Min_cycle;Max_cycle;Signal;HPM_P1;HPM_P2
2022/10/10 00:00:45;;;;;;;7.47;5.30;;;7.00;99.90;;;;;;5050178;28;20047;-64
2022/10/10 00:03:14;;;;;;;8.05;5.45;;;7.00;99.90;;;;;;5044188;28;20626;-63
2022/10/10 00:05:40;;;;;;;8.20;5.20;;;7.00;99.90;;;;;;5064454;28;20490;-63
2022/10/10 00:08:07;;;;;;;11.25;5.30;;;6.90;99.90;;;;;;5045010;28;20109;-63
2022/10/10 00:10:33;;;;;;;7.88;5.57;;;6.90;99.90;;;;;;5030182;28;20052;-63
2022/10/10 00:13:00;;;;;;;8.85;5.32;;;6.90;99.90;;;;;;5043272;28;20056;-63
2022/10/10 00:15:26;;;;;;;9.00;5.38;;;7.00;99.90;;;;;;5056437;28;20037;-63
2022/10/10 00:17:51;;;;;;;10.65;5.68;;;6.90;99.90;;;;;;5048152;28;20311;-63
2022/10/10 00:20:18;;;;;;;10.32;4.80;;;7.00;99.90;;;;;;5052572;28;20147;-63
2022/10/10 00:22:45;;;;;;;8.40;5.38;;;7.00;99.90;;;;;;5058980;28;20821;-62
2022/10/10 00:25:10;;;;;;;10.73;5.53;;;7.00;99.90;;;;;;5053894;28;20041;-63
2022/10/10 00:27:37;;;;;;;9.23;5.40;;;7.00;99.90;;;;;;5047163;28;20124;-63
2022/10/10 00:30:05;;;;;;;9.02;5.45;;;7.00;99.90;;;;;;5057036;28;20033;-64
2022/10/10 00:32:31;;;;;;;7.18;5.43;;;6.90;99.90;;;;;;5054272;28;20041;-63
2022/10/10 00:34:56;;;;;;;9.98;5.20;;;6.90;99.90;;;;;;5044245;28;20052;-63
2022/10/10 00:37:22;;;;;;;9.77;5.70;;;6.80;99.90;;;;;;5060662;28;20040;-63
2022/10/10 00:39:48;;;;;;;8.90;5.38;;;6.70;99.90;;;;;;5054822;28;20152;-62
2022/10/10 00:42:15;;;;;;;9.07;5.97;;;6.70;99.90;;;;;;5050677;28;20492;-63
2022/10/10 00:44:42;;;;;;;9.13;5.18;;;6.70;99.90;;;;;;5061502;28;20037;-63
2022/10/10 00:47:08;;;;;;;9.73;5.45;;;6.70;99.90;;;;;;5054104;28;20040;-63
2022/10/10 00:49:38;;;;;;;11.35;5.70;;;6.60;99.90;;;;;;5055484;28;20052;-63
2022/10/10 00:52:05;;;;;;;7.72;5.30;;;6.60;99.90;;;;;;5045387;28;20072;-63
2022/10/10 00:54:32;;;;;;;8.98;5.68;;;6.60;99.90;;;;;;5045763;28;20468;-63
2022/10/10 00:57:12;;;;;;;9.48;5.68;;;6.60;99.90;;;;;;5055811;28;20078;-63
2022/10/10 00:59:41;;;;;;;7.70;5.28;;;6.60;99.90;;;;;;5056716;28;20041;-63
2022/10/10 01:02:07;;;;;;;12.35;5.57;;;6.50;99.90;;;;;;5053250;28;21324;-63
2022/10/10 01:04:43;;;;;;;9.85;5.07;;;6.60;99.90;;;;;;5052518;28;20055;-64
2022/10/10 01:07:21;;;;;;;9.00;5.55;;;6.60;99.90;;;;;;5046259;28;20029;-63
2022/10/10 01:09:49;;;;;;;10.43;6.00;;;6.60;99.90;;;;;;5060845;28;20503;-63
2022/10/10 01:12:25;;;;;;;9.88;5.70;;;6.60;99.90;;;;;;5033138;28;20538;-63
2022/10/10 01:15:30;;;;;;;11.20;5.35;;;6.70;99.90;;;;;;5054055;28;20026;-63
2022/10/10 01:18:04;;;;;;;7.90;5.45;;;6.70;99.90;;;;;;5047728;28;20037;-63
2022/10/10 01:20:59;;;;;;;11.68;5.68;;;6.70;99.90;;;;;;5045749;28;20080;-63
2022/10/10 01:23:59;;;;;;;8.65;5.68;;;6.70;99.90;;;;;;5012875;28;20667;-63
2022/10/10 01:26:57;;;;;;;11.43;5.87;;;6.60;99.90;;;;;;5054316;28;20100;-63
2022/10/10 01:29:30;;;;;;;8.00;5.00;;;6.60;99.90;;;;;;5055160;28;20041;-62
2022/10/10 01:32:04;;;;;;;12.63;6.18;;;6.70;99.90;;;;;;5056705;28;20124;-63
2022/10/10 01:34:37;;;;;;;8.65;5.43;;;6.60;99.90;;;;;;5055136;28;20047;-63
2022/10/10 01:37:11;;;;;;;9.65;5.78;;;6.60;99.90;;;;;;5051707;28;20145;-63
2022/10/10 01:39:59;;;;;;;10.68;6.80;;;6.50;99.90;;;;;;5051185;28;20052;-63
2022/10/10 01:42:39;;;;;;;9.95;5.50;;;6.50;99.90;;;;;;5051841;28;20037;-62
2022/10/10 01:45:05;;;;;;;;;;;6.50;99.90;;;;;;5053415;28;20049;-63
2022/10/10 01:47:31;;;;;;;12.10;5.60;;;6.40;99.90;;;;;;5066640;28;20313;-62
2022/10/10 01:50:01;;;;;;;6.60;5.20;;;6.40;99.90;;;;;;5055459;28;20055;-62
2022/10/10 01:52:40;;;;;;;8.38;5.40;;;6.30;99.90;;;;;;5047277;28;20192;-63
2022/10/10 01:55:24;;;;;;;6.80;5.07;;;6.20;99.90;;;;;;5046528;28;20044;-64
2022/10/10 01:57:58;;;;;;;11.88;6.28;;;6.20;99.90;;;;;;5047223;28;20041;-63
2022/10/10 02:00:24;;;;;;;8.52;5.30;;;6.20;99.90;;;;;;5060317;28;20040;-63
2022/10/10 02:03:01;;;;;;;10.93;5.90;;;6.20;99.90;;;;;;5065007;28;20052;-63
2022/10/10 02:05:38;;;;;;;10.77;5.72;;;6.20;99.90;;;;;;5053679;28;20047;-63
2022/10/10 02:08:13;;;;;;;10.35;6.07;;;6.20;99.90;;;;;;5047936;28;20078;-63
2022/10/10 02:10:59;;;;;;;9.18;5.32;;;6.20;99.90;;;;;;5055262;28;20041;-63
2022/10/10 02:13:29;;;;;;;9.25;5.78;;;6.10;99.90;;;;;;5046047;28;20521;-64
2022/10/10 02:15:56;;;;;;;;;;;6.10;99.90;;;;;;5055055;28;20037;-63
2022/10/10 02:18:26;;;;;;;9.35;5.13;;;6.00;99.90;;;;;;5055947;28;20003;-63
2022/10/10 02:20:53;;;;;;;8.88;5.85;;;6.00;99.90;;;;;;5059693;28;20109;-63
2022/10/10 02:23:20;;;;;;;10.68;6.00;;;6.00;99.90;;;;;;5049275;28;20476;-63
2022/10/10 02:25:50;;;;;;;7.28;5.45;;;6.00;99.90;;;;;;5054249;28;20033;-63
2022/10/10 02:28:35;;;;;;;10.13;5.47;;;6.00;99.90;;;;;;5048285;28;20045;-63
2022/10/10 02:31:05;;;;;;;8.38;5.60;;;6.00;99.90;;;;;;5050597;28;20388;-63
2022/10/10 02:33:42;;;;;;;7.88;5.53;;;5.90;99.90;;;;;;5049209;28;20091;-63
2022/10/10 02:36:08;;;;;;;9.98;5.75;;;5.90;99.90;;;;;;5050616;28;20063;-63
2022/10/10 02:38:34;;;;;;;9.45;5.90;;;5.90;99.90;;;;;;5058675;28;20049;-63
2022/10/10 02:41:02;;;;;;;10.05;5.80;;;6.00;99.90;;;;;;5060784;28;20117;-63
2022/10/10 02:43:32;;;;;;;8.48;5.65;;;5.90;99.90;;;;;;5046831;28;20112;-63
2022/10/10 02:46:03;;;;;;;7.45;5.18;;;5.90;99.90;;;;;;5047030;28;20070;-63
2022/10/10 02:48:29;;;;;;;12.57;6.00;;;5.90;99.90;;;;;;5058542;28;20040;-63
2022/10/10 02:50:55;;;;;;;9.05;5.45;;;5.90;99.90;;;;;;5051533;28;20067;-63
2022/10/10 02:53:21;;;;;;;9.02;5.53;;;5.90;99.90;;;;;;5047987;28;20114;-63
2022/10/10 02:55:46;;;;;;;8.32;5.22;;;5.90;99.90;;;;;;5052875;28;20441;-63
2022/10/10 02:58:13;;;;;;;13.85;6.22;;;5.90;99.90;;;;;;5064655;28;20057;-63
2022/10/10 03:00:39;;;;;;;12.55;6.03;;;5.80;99.90;;;;;;5069035;28;20112;-63
2022/10/10 03:03:04;;;;;;;8.43;5.50;;;5.80;99.90;;;;;;5052495;28;20076;-63
2022/10/10 03:05:30;;;;;;;8.70;5.75;;;5.80;99.90;;;;;;5061740;28;20064;-63
2022/10/10 03:07:55;;;;;;;11.40;5.75;;;5.80;99.90;;;;;;5051701;28;20069;-63
2022/10/10 03:10:21;;;;;;;8.60;5.30;;;5.80;99.90;;;;;;5055909;28;20195;-63
2022/10/10 03:12:46;;;;;;;7.25;5.53;;;5.80;99.90;;;;;;5049377;28;20353;-63
2022/10/10 03:15:12;;;;;;;9.30;5.78;;;5.80;99.90;;;;;;5050342;28;20461;-63
2022/10/10 03:17:38;;;;;;;10.82;5.90;;;5.90;99.90;;;;;;5056728;28;20473;-63
2022/10/10 03:20:04;;;;;;;10.80;6.25;;;5.90;99.90;;;;;;5050321;28;20037;-63
2022/10/10 03:22:30;;;;;;;9.18;6.00;;;5.90;99.90;;;;;;5053043;28;21024;-63
2022/10/10 03:24:56;;;;;;;8.88;5.35;;;5.90;99.90;;;;;;5065088;28;20036;-63
2022/10/10 03:27:21;;;;;;;10.30;5.55;;;5.90;99.90;;;;;;5047140;28;20090;-63
2022/10/10 03:29:47;;;;;;;9.75;5.32;;;5.90;99.90;;;;;;5054357;28;20451;-63
2022/10/10 03:32:12;;;;;;;11.80;5.32;;;5.90;99.90;;;;;;5052422;28;20441;-63
2022/10/10 03:34:38;;;;;;;6.88;5.20;;;5.90;99.90;;;;;;5053047;28;20059;-64
2022/10/10 03:37:03;;;;;;;10.15;5.38;;;5.90;99.90;;;;;;5063323;28;20060;-63
2022/10/10 03:39:29;;;;;;;11.23;6.03;;;5.80;99.90;;;;;;5057290;28;20028;-63
2022/10/10 03:41:55;;;;;;;6.30;4.85;;;5.90;99.90;;;;;;5046672;28;20603;-63
2022/10/10 03:44:20;;;;;;;8.88;5.70;;;5.90;99.90;;;;;;5047008;28;20137;-64
2022/10/10 03:46:46;;;;;;;7.65;5.30;;;5.90;99.90;;;;;;5034862;28;20082;-64
2022/10/10 03:49:11;;;;;;;14.57;6.25;;;5.90;99.90;;;;;;5048316;28;20037;-64
2022/10/10 03:51:37;;;;;;;8.57;5.72;;;5.80;99.90;;;;;;5051726;28;20056;-64
2022/10/10 03:54:03;;;;;;;9.52;5.55;;;5.80;99.90;;;;;;5048857;28;20092;-63
2022/10/10 03:56:28;;;;;;;9.35;5.47;;;5.80;99.90;;;;;;5051148;28;20037;-63
2022/10/10 03:58:56;;;;;;;8.95;5.63;;;5.80;99.90;;;;;;5046617;28;20037;-63
2022/10/10 04:01:22;;;;;;;9.23;6.07;;;5.80;99.90;;;;;;5047317;28;20154;-63
2022/10/10 04:03:47;;;;;;;9.73;5.78;;;5.80;99.90;;;;;;5053659;28;20136;-63
2022/10/10 04:06:13;;;;;;;8.70;6.03;;;5.80;99.90;;;;;;5050626;28;20080;-63
2022/10/10 04:08:38;;;;;;;13.30;6.32;;;5.70;99.90;;;;;;5046668;28;20041;-63
2022/10/10 04:11:04;;;;;;;9.45;5.65;;;5.80;99.90;;;;;;5046424;28;20048;-63
2022/10/10 04:13:30;;;;;;;9.45;5.78;;;5.80;99.90;;;;;;5053592;28;20082;-63
2022/10/10 04:15:56;;;;;;;10.02;5.75;;;5.70;99.90;;;;;;5045637;28;20036;-63
2022/10/10 04:18:23;;;;;;;8.20;5.35;;;5.70;99.90;;;;;;5045903;28;20068;-63
2022/10/10 04:20:49;;;;;;;9.07;5.82;;;5.70;99.90;;;;;;5049182;28;20421;-63
2022/10/10 04:23:15;;;;;;;8.27;5.60;;;5.60;99.90;;;;;;5056694;28;20071;-63
2022/10/10 04:25:40;;;;;;;9.35;5.78;;;5.60;99.90;;;;;;5060375;28;20052;-63
2022/10/10 04:28:09;;;;;;;9.82;5.18;;;5.60;99.90;;;;;;5028812;28;20044;-63
2022/10/10 04:30:34;;;;;;;14.00;6.43;;;5.60;99.90;;;;;;5032386;28;20670;-63
2022/10/10 04:33:00;;;;;;;10.70;5.43;;;5.60;99.90;;;;;;5062117;28;20136;-63
2022/10/10 04:35:26;;;;;;;10.02;5.85;;;5.60;99.90;;;;;;5051010;28;20075;-63
2022/10/10 04:37:52;;;;;;;12.50;5.68;;;5.50;99.90;;;;;;5045295;28;20048;-63
2022/10/10 04:40:17;;;;;;;10.57;5.72;;;5.50;99.90;;;;;;5062637;28;20052;-64
2022/10/10 04:42:43;;;;;;;9.32;6.03;;;5.50;99.90;;;;;;5047266;28;20055;-64
2022/10/10 04:45:09;;;;;;;8.27;5.43;;;5.50;99.90;;;;;;5048505;28;20090;-63
2022/10/10 04:47:35;;;;;;;9.32;5.78;;;5.50;99.90;;;;;;5048838;28;20429;-64
2022/10/10 04:50:00;;;;;;;10.48;5.93;;;5.50;99.90;;;;;;5045189;28;20063;-64
2022/10/10 04:52:26;;;;;;;12.20;6.63;;;5.50;99.90;;;;;;5053576;28;20509;-64
2022/10/10 04:54:51;;;;;;;10.68;6.50;;;5.50;99.90;;;;;;5053006;28;20028;-63
2022/10/10 04:57:17;;;;;;;9.80;6.55;;;5.60;99.90;;;;;;5057403;28;20041;-63
2022/10/10 04:59:43;;;;;;;13.32;6.70;;;5.70;99.90;;;;;;5044782;28;20043;-64
2022/10/10 05:02:09;;;;;;;10.18;6.70;;;5.80;99.90;;;;;;5052146;28;20049;-64
2022/10/10 05:04:34;;;;;;;11.60;6.75;;;5.90;99.90;;;;;;5047329;28;20052;-64
2022/10/10 05:07:00;;;;;;;9.48;6.45;;;5.90;99.90;;;;;;5051629;28;20028;-64
2022/10/10 05:09:26;;;;;;;12.30;7.13;;;5.90;99.90;;;;;;5052255;28;20124;-63
2022/10/10 05:11:51;;;;;;;14.02;6.65;;;6.00;99.90;;;;;;5068466;28;20044;-64
2022/10/10 05:14:17;;;;;;;12.38;7.10;;;6.00;99.90;;;;;;5047277;28;20049;-63
2022/10/10 05:16:42;;;;;;;13.55;7.47;;;6.20;99.90;;;;;;5052924;28;20437;-64
2022/10/10 05:19:08;;;;;;;11.40;6.90;;;6.20;99.90;;;;;;5058832;28;20127;-63
2022/10/10 05:21:33;;;;;;;11.98;6.90;;;6.30;99.90;;;;;;5053512;28;20059;-64
2022/10/10 05:23:59;;;;;;;10.93;7.30;;;6.40;99.90;;;;;;5051172;28;20040;-64
2022/10/10 05:26:25;;;;;;;10.95;6.43;;;6.40;99.90;;;;;;5056404;28;20040;-64
2022/10/10 05:28:51;;;;;;;9.73;6.80;;;6.40;99.90;;;;;;5052253;28;20048;-64
2022/10/10 05:31:16;;;;;;;9.32;6.15;;;6.40;99.90;;;;;;5046499;28;20053;-64
2022/10/10 05:33:42;;;;;;;10.43;6.88;;;6.40;99.90;;;;;;5047712;28;20040;-64
2022/10/10 05:36:11;;;;;;;11.32;6.57;;;6.50;99.90;;;;;;5055637;28;20041;-64
2022/10/10 05:38:38;;;;;;;13.40;6.82;;;6.50;99.90;;;;;;5050398;28;20037;-64
2022/10/10 05:41:03;;;;;;;8.98;6.65;;;6.60;99.90;;;;;;5046812;28;20913;-64
2022/10/10 05:43:29;;;;;;;12.40;6.97;;;6.60;99.90;;;;;;5044041;28;20041;-65
2022/10/10 05:45:55;;;;;;;9.65;6.93;;;6.60;99.90;;;;;;5051140;28;20033;-64
2022/10/10 05:48:21;;;;;;;11.75;6.65;;;6.60;99.90;;;;;;5052515;28;20080;-64
2022/10/10 05:50:53;;;;;;;11.18;7.05;;;6.60;99.90;;;;;;5052213;28;20132;-64
2022/10/10 05:53:20;;;;;;;10.35;6.45;;;6.70;99.90;;;;;;5042247;28;20098;-65
2022/10/10 05:55:46;;;;;;;16.20;7.47;;;6.70;99.90;;;;;;5050068;28;20477;-65
2022/10/10 05:58:12;;;;;;;12.45;6.60;;;6.60;99.90;;;;;;5042006;28;20056;-64
2022/10/10 06:00:42;;;;;;;12.73;7.30;;;6.60;99.90;;;;;;5036492;28;20045;-65
2022/10/10 06:03:14;;;;;;;12.07;6.95;;;6.60;99.90;;;;;;5044965;28;20049;-63
2022/10/10 06:05:40;;;;;;;11.75;6.95;;;6.60;99.90;;;;;;5047014;28;20365;-64
2022/10/10 06:08:06;;;;;;;11.77;6.90;;;6.70;99.90;;;;;;5051830;28;20037;-64
2022/10/10 06:10:37;;;;;;;11.85;7.28;;;6.60;99.90;;;;;;5057591;28;20056;-64
2022/10/10 06:13:03;;;;;;;11.43;6.65;;;6.70;99.90;;;;;;5054298;28;20078;-65
2022/10/10 06:15:29;;;;;;;11.40;7.28;;;6.70;99.90;;;;;;5055045;28;20468;-65
2022/10/10 06:17:54;;;;;;;11.73;7.05;;;6.70;99.90;;;;;;5057148;28;20032;-65
2022/10/10 06:20:20;;;;;;;9.73;6.57;;;6.70;99.90;;;;;;5050131;28;20059;-64
2022/10/10 06:22:45;;;;;;;11.05;6.80;;;6.70;99.90;;;;;;5060216;28;20044;-65
2022/10/10 06:25:11;;;;;;;11.40;6.47;;;6.80;99.90;;;;;;5058295;28;20498;-65
2022/10/10 06:27:37;;;;;;;12.75;6.43;;;6.80;99.90;;;;;;5048751;28;20338;-64
2022/10/10 06:30:03;;;;;;;14.43;7.53;;;6.80;99.90;;;;;;5052059;28;20051;-64
2022/10/10 06:32:29;;;;;;;12.02;7.47;;;6.90;99.90;;;;;;5050592;28;20511;-65
2022/10/10 06:34:54;;;;;;;10.38;6.47;;;7.00;99.90;;;;;;5047551;28;20025;-65
2022/10/10 06:37:20;;;;;;;14.60;7.22;;;7.10;99.90;;;;;;5050151;28;20107;-65
2022/10/10 06:39:45;;;;;;;10.65;6.65;;;7.20;99.90;;;;;;5059655;28;20029;-65
2022/10/10 06:42:11;;;;;;;11.18;6.80;;;7.20;99.90;;;;;;5046892;28;20124;-65
2022/10/10 06:44:36;;;;;;;12.00;6.43;;;7.30;99.90;;;;;;5053748;28;20393;-65
2022/10/10 06:47:02;;;;;;;9.32;6.50;;;7.30;99.90;;;;;;5051246;28;20068;-65
2022/10/10 06:49:28;;;;;;;12.18;6.88;;;7.40;99.90;;;;;;5067334;28;20033;-65
2022/10/10 06:51:54;;;;;;;11.93;6.90;;;7.50;99.90;;;;;;5052835;28;20089;-66
2022/10/10 06:54:20;;;;;;;12.55;7.95;;;7.60;99.90;;;;;;5047123;28;20135;-65
2022/10/10 06:56:45;;;;;;;11.52;7.07;;;7.80;99.90;;;;;;5057426;28;20047;-65
2022/10/10 06:59:11;;;;;;;11.27;6.93;;;8.10;99.90;;;;;;5049317;28;20029;-66
2022/10/10 07:01:36;;;;;;;12.77;6.60;;;8.40;99.90;;;;;;5047701;28;20457;-64
2022/10/10 07:04:02;;;;;;;9.45;6.72;;;8.70;99.90;;;;;;5052132;28;20049;-65
2022/10/10 07:06:28;;;;;;;13.00;6.60;;;9.00;99.90;;;;;;5058600;28;20159;-65
2022/10/10 07:08:54;;;;;;;12.85;6.32;;;9.20;99.90;;;;;;5050461;28;20036;-66
2022/10/10 07:11:19;;;;;;;10.35;6.57;;;9.50;99.90;;;;;;5052132;28;20385;-66
2022/10/10 07:13:45;;;;;;;8.40;6.10;;;9.80;99.90;;;;;;5056477;28;20079;-65
2022/10/10 07:16:10;;;;;;;11.18;6.22;;;9.80;99.90;;;;;;5054634;28;20071;-64
2022/10/10 07:18:36;;;;;;;10.80;5.88;;;9.70;99.90;;;;;;5051355;28;20052;-65
2022/10/10 07:21:03;;;;;;;9.85;5.88;;;9.70;99.90;;;;;;5050968;28;20064;-64
2022/10/10 07:23:31;;;;;;;9.13;6.40;;;9.80;99.90;;;;;;5054279;28;20082;-65
2022/10/10 07:26:04;;;;;;;9.60;6.25;;;9.90;99.90;;;;;;5050320;28;20155;-64
2022/10/10 07:28:30;;;;;;;12.40;6.60;;;9.90;99.90;;;;;;5046237;28;20036;-64
2022/10/10 07:31:01;;;;;;;8.40;5.97;;;9.90;99.90;;;;;;5052767;28;20581;-64
2022/10/10 07:33:32;;;;;;;8.07;5.93;;;9.90;99.90;;;;;;5052106;28;20059;-64
2022/10/10 07:35:57;;;;;;;9.00;6.43;;;9.90;99.90;;;;;;5054055;28;20391;-64
2022/10/10 07:38:23;;;;;;;10.35;6.15;;;10.00;99.90;;;;;;5052495;28;20051;-64
2022/10/10 07:40:48;;;;;;;11.07;5.88;;;10.00;99.90;;;;;;5063081;28;20033;-64
2022/10/10 07:43:14;;;;;;;9.18;5.65;;;10.10;99.90;;;;;;5056870;28;20048;-64
2022/10/10 07:45:40;;;;;;;10.70;6.40;;;10.10;99.90;;;;;;5057814;28;20035;-65
2022/10/10 07:48:05;;;;;;;8.90;6.13;;;10.30;99.90;;;;;;5057053;28;20075;-64
2022/10/10 07:50:31;;;;;;;10.55;5.90;;;10.30;99.90;;;;;;5055505;28;20383;-64
2022/10/10 07:52:56;;;;;;;11.57;6.43;;;10.30;99.90;;;;;;5058457;28;20044;-65
2022/10/10 07:55:22;;;;;;;9.82;6.15;;;10.40;99.90;;;;;;5063737;28;20114;-64
2022/10/10 07:57:49;;;;;;;11.90;6.65;;;10.30;99.90;;;;;;5053538;28;20036;-64
2022/10/10 08:00:15;;;;;;;10.25;6.68;;;10.20;99.90;;;;;;5057951;28;20045;-64
2022/10/10 08:02:41;;;;;;;13.27;5.95;;;10.20;99.90;;;;;;5059032;28;20063;-64
2022/10/10 08:05:07;;;;;;;11.68;6.55;;;10.20;99.90;;;;;;5055663;28;20041;-65
2022/10/10 08:07:33;;;;;;;11.18;6.35;;;10.20;99.90;;;;;;5052996;28;20376;-64
2022/10/10 08:09:58;;;;;;;13.05;6.75;;;10.30;99.90;;;;;;5056584;28;20041;-65
2022/10/10 08:12:24;;;;;;;10.13;6.57;;;10.30;99.90;;;;;;5054958;28;20040;-64
2022/10/10 08:14:50;;;;;;;8.50;6.00;;;10.40;99.90;;;;;;5052592;28;20048;-64
2022/10/10 08:17:15;;;;;;;13.73;7.55;;;10.50;99.90;;;;;;5047340;28;20037;-64
2022/10/10 08:19:41;;;;;;;13.38;6.50;;;10.70;99.90;;;;;;5055186;28;20468;-64
2022/10/10 08:22:06;;;;;;;13.25;6.53;;;10.90;99.90;;;;;;5058269;28;20539;-64
2022/10/10 08:24:32;;;;;;;9.80;6.07;;;11.00;99.90;;;;;;5059768;28;20388;-64
2022/10/10 08:26:57;;;;;;;9.45;6.45;;;11.00;99.90;;;;;;5048067;28;20056;-64
2022/10/10 08:29:23;;;;;;;11.60;6.65;;;11.00;99.90;;;;;;5051079;28;20037;-64
2022/10/10 08:31:49;;;;;;;10.05;6.40;;;11.10;99.90;;;;;;5057848;28;20035;-63
2022/10/10 08:34:14;;;;;;;10.73;6.97;;;11.10;99.90;;;;;;5055177;28;20381;-64
2022/10/10 08:36:40;;;;;;;13.35;7.00;;;11.10;99.90;;;;;;5049144;28;20114;-65
2022/10/10 08:39:06;;;;;;;9.77;6.75;;;11.10;99.90;;;;;;5057364;28;20036;-65
2022/10/10 08:41:44;;;;;;;9.68;6.50;;;11.20;99.90;;;;;;5060060;28;20078;-64
2022/10/10 08:44:17;;;;;;;8.90;6.18;;;11.30;99.90;;;;;;5056217;28;20035;-65
2022/10/10 08:46:52;;;;;;;11.13;6.32;;;11.40;99.90;;;;;;5057552;28;20411;-65
2022/10/10 08:49:33;;;;;;;11.65;6.85;;;11.30;99.90;;;;;;5048718;28;20082;-64
2022/10/10 08:52:23;;;;;;;10.77;6.70;;;11.30;99.90;;;;;;5050158;28;20120;-64
2022/10/10 08:54:51;;;;;;;;;;;11.30;99.90;;;;;;5055746;28;20055;-64
2022/10/10 08:57:54;;;;;;;11.93;6.90;;;11.20;99.90;;;;;;5046758;28;19920;-64
2022/10/10 09:00:23;;;;;;;10.63;6.53;;;11.20;99.90;;;;;;5043468;28;20117;-64
2022/10/10 09:02:48;;;;;;;13.30;7.20;;;11.20;99.90;;;;;;5049754;28;20053;-65
2022/10/10 09:05:18;;;;;;;11.57;7.47;;;11.30;99.90;;;;;;5059204;28;20055;-64
2022/10/10 09:07:49;;;;;;;17.10;8.18;;;11.30;99.90;;;;;;5050016;28;20041;-65
2022/10/10 09:11:03;;;;;;;10.52;7.25;;;11.30;99.90;;;;;;5059120;28;20049;-64
2022/10/10 09:13:42;;;;;;;11.63;6.93;;;11.40;99.90;;;;;;5061532;28;20445;-64
2022/10/10 09:16:21;;;;;;;12.45;7.80;;;11.50;99.90;;;;;;5066834;28;20040;-64
2022/10/10 09:19:04;;;;;;;12.50;7.65;;;11.60;99.90;;;;;;5063989;28;20040;-64
2022/10/10 09:21:36;;;;;;;12.73;7.28;;;11.90;99.90;;;;;;5048183;28;20550;-64
2022/10/10 09:24:09;;;;;;;11.38;7.22;;;12.10;99.90;;;;;;5049663;28;20515;-64
2022/10/10 09:26:40;;;;;;;16.20;7.80;;;12.30;99.90;;;;;;5057399;28;20121;-64
2022/10/10 09:29:24;;;;;;;9.65;7.15;;;12.50;99.90;;;;;;5047364;28;20048;-64
2022/10/10 09:32:07;;;;;;;10.07;7.03;;;12.60;99.90;;;;;;5048692;28;20280;-64
2022/10/10 09:34:41;;;;;;;17.05;7.65;;;12.70;99.90;;;;;;5049042;28;20033;-64
2022/10/10 09:37:18;;;;;;;10.25;7.70;;;12.80;99.90;;;;;;5054980;28;20084;-64
2022/10/10 09:39:56;;;;;;;10.95;7.82;;;12.90;99.90;;;;;;5058214;28;20071;-65
2022/10/10 09:42:37;;;;;;;11.25;7.15;;;12.90;99.90;;;;;;5046248;28;20037;-65
2022/10/10 09:45:23;;;;;;;11.98;7.68;;;12.90;99.90;;;;;;5050536;28;20820;-70
2022/10/10 09:47:52;;;;;;;11.82;7.53;;;13.00;99.90;;;;;;5044615;28;20093;-65
2022/10/10 09:50:19;;;;;;;11.60;7.35;;;13.10;99.90;;;;;;5057744;28;20037;-64
2022/10/10 09:52:46;;;;;;;11.13;8.18;;;13.20;99.90;;;;;;5054786;28;20040;-65
2022/10/10 09:55:27;;;;;;;11.10;7.53;;;13.40;99.90;;;;;;5070631;28;20044;-64
2022/10/10 09:57:55;;;;;;;11.10;7.47;;;13.60;99.90;;;;;;5055223;28;20116;-64
2022/10/10 10:00:27;;;;;;;14.43;7.53;;;13.80;99.90;;;;;;5058007;28;20079;-63
2022/10/10 10:03:13;;;;;;;10.05;6.70;;;13.80;99.90;;;;;;5049922;28;20114;-65
2022/10/10 10:05:42;;;;;;;11.48;7.68;;;13.90;99.90;;;;;;5052769;28;20045;-64
2022/10/10 10:08:28;;;;;;;13.60;7.45;;;14.10;99.90;;;;;;5052113;28;20376;-65
2022/10/10 10:10:57;;;;;;;11.23;7.15;;;14.30;99.90;;;;;;5050590;28;20036;-65
2022/10/10 10:13:43;;;;;;;9.75;7.20;;;14.40;99.90;;;;;;5054925;28;20041;-64
2022/10/10 10:16:11;;;;;;;11.73;6.93;;;14.50;99.90;;;;;;5055968;28;20053;-65
2022/10/10 10:18:43;;;;;;;11.80;7.22;;;14.40;99.90;;;;;;5058957;28;20097;-65
2022/10/10 10:21:11;;;;;;;12.35;7.60;;;14.40;99.90;;;;;;5057483;28;20064;-66
2022/10/10 10:23:49;;;;;;;14.55;7.22;;;14.30;99.90;;;;;;5057626;28;20041;-64
2022/10/10 10:26:22;;;;;;;10.75;7.25;;;14.40;99.90;;;;;;5064365;28;20044;-65
2022/10/10 10:28:50;;;;;;;12.95;6.95;;;14.50;99.90;;;;;;5050923;28;20037;-64
2022/10/10 10:31:25;;;;;;;14.20;7.78;;;14.50;99.90;;;;;;5061329;28;20040;-64
2022/10/10 10:34:05;;;;;;;14.13;8.00;;;14.50;99.90;;;;;;5064828;28;20039;-65
2022/10/10 10:36:45;;;;;;;11.85;7.28;;;14.50;99.90;;;;;;5057423;28;20119;-66
2022/10/10 10:39:52;;;;;;;11.88;7.43;;;14.50;99.90;;;;;;5070422;28;20117;-66
2022/10/10 10:42:48;;;;;;;10.18;7.60;;;14.50;99.90;;;;;;5049987;28;20036;-65
2022/10/10 10:45:24;;;;;;;13.80;6.80;;;14.50;99.90;;;;;;5054528;28;20432;-65
2022/10/10 10:48:18;;;;;;;13.65;7.47;;;14.60;99.90;;;;;;5053565;28;20151;-65
2022/10/10 10:50:53;;;;;;;12.18;7.18;;;14.70;99.90;;;;;;5051242;28;20423;-66
2022/10/10 10:53:47;;;;;;;14.75;7.90;;;14.80;99.90;;;;;;5056958;28;20364;-65
2022/10/10 10:56:20;;;;;;;11.35;6.78;;;14.90;99.90;;;;;;5055264;28;20045;-65
2022/10/10 10:59:12;;;;;;;9.95;6.72;;;15.00;99.90;;;;;;5049994;28;20064;-64
2022/10/10 11:01:48;;;;;;;13.57;7.15;;;15.10;99.90;;;;;;5051876;28;20036;-65
2022/10/10 11:04:44;;;;;;;11.13;6.50;;;15.20;99.90;;;;;;5063707;28;20418;-65
2022/10/10 11:07:19;;;;;;;10.57;6.78;;;15.40;99.90;;;;;;5065507;28;20052;-65
2022/10/10 11:10:08;;;;;;;11.50;6.55;;;15.50;99.90;;;;;;5058690;28;20503;-64
2022/10/10 11:12:40;;;;;;;10.63;6.50;;;15.50;99.90;;;;;;5028987;28;20052;-65
2022/10/10 11:15:21;;;;;;;10.82;6.35;;;15.60;99.90;;;;;;5037176;28;20048;-65
2022/10/10 11:17:59;;;;;;;11.52;6.57;;;15.50;99.90;;;;;;5055382;28;20175;-65
2022/10/10 11:20:34;;;;;;;12.50;6.68;;;15.60;99.90;;;;;;5064294;28;20181;-65
2022/10/10 11:23:18;;;;;;;11.38;6.18;;;15.60;99.90;;;;;;5057246;28;20036;-64
2022/10/10 11:25:47;;;;;;;15.27;6.45;;;15.50;99.90;;;;;;5059686;28;20495;-65
2022/10/10 11:28:31;;;;;;;11.90;7.63;;;15.50;99.90;;;;;;5054963;28;20121;-65
2022/10/10 11:31:04;;;;;;;10.38;6.35;;;15.60;99.90;;;;;;5065520;28;20056;-64
2022/10/10 11:33:34;;;;;;;13.02;7.30;;;15.60;99.90;;;;;;5053005;28;20139;-64
2022/10/10 11:36:13;;;;;;;12.73;7.80;;;15.40;99.90;;;;;;5051468;28;20490;-65
2022/10/10 11:39:01;;;;;;;10.15;6.18;;;15.50;99.90;;;;;;5053519;28;20695;-64
2022/10/10 11:41:32;;;;;;;11.85;6.57;;;15.40;99.90;;;;;;5050017;28;20061;-65
2022/10/10 11:44:09;;;;;;;11.13;5.85;;;15.20;99.90;;;;;;5053187;28;20097;-65
2022/10/10 11:47:02;;;;;;;12.30;7.65;;;15.10;99.90;;;;;;5063236;28;20036;-64
2022/10/10 11:49:52;;;;;;;13.07;6.95;;;15.00;99.90;;;;;;5067316;28;20041;-65
2022/10/10 11:52:29;;;;;;;10.15;7.15;;;15.00;99.90;;;;;;5064456;28;20040;-64
2022/10/10 11:55:09;;;;;;;9.57;6.90;;;14.90;99.90;;;;;;5068920;28;20040;-64
2022/10/10 11:57:58;;;;;;;13.52;7.35;;;14.80;99.90;;;;;;5059220;28;20120;-65
2022/10/10 12:00:27;;;;;;;13.70;7.00;;;14.70;99.90;;;;;;5065827;28;20056;-64
2022/10/10 12:02:56;;;;;;;10.90;6.97;;;14.70;99.90;;;;;;5055496;28;20127;-64
2022/10/10 12:05:30;;;;;;;12.77;6.25;;;14.60;99.90;;;;;;5059086;28;20043;-65
2022/10/10 12:07:55;;;;;;;12.10;6.45;;;14.60;99.90;;;;;;5048343;28;20033;-65
2022/10/10 12:10:34;;;;;;;15.63;7.35;;;14.40;99.90;;;;;;5059054;28;20079;-64
2022/10/10 12:13:26;;;;;;;12.55;7.50;;;14.10;99.90;;;;;;5061210;28;20317;-65
2022/10/10 12:15:55;;;;;;;12.73;7.10;;;13.80;99.90;;;;;;5059058;28;20068;-64
2022/10/10 12:18:44;;;;;;;14.18;7.68;;;13.60;99.90;;;;;;5065227;28;20349;-65
2022/10/10 12:21:15;;;;;;;13.27;6.80;;;13.60;99.90;;;;;;5064901;28;20055;-65
2022/10/10 12:23:47;;;;;;;12.02;6.97;;;13.60;99.90;;;;;;5055266;28;20120;-65
2022/10/10 12:26:16;;;;;;;10.57;6.82;;;13.50;99.90;;;;;;5049143;28;20076;-64
2022/10/10 12:29:05;;;;;;;11.93;6.93;;;13.50;99.90;;;;;;5056842;28;20187;-65
2022/10/10 12:31:34;;;;;;;15.82;7.10;;;13.50;99.90;;;;;;5062343;28;20089;-64
2022/10/10 12:34:39;;;;;;;14.70;6.70;;;13.50;99.90;;;;;;5066326;28;20054;-65
2022/10/10 12:37:25;;;;;;;13.43;7.00;;;13.50;99.90;;;;;;5059522;28;20086;-65
2022/10/10 12:40:06;;;;;;;10.43;6.75;;;13.60;99.90;;;;;;5047203;28;20060;-65
2022/10/10 12:42:58;;;;;;;17.10;6.80;;;13.70;99.90;;;;;;5041788;28;20077;-65
2022/10/10 12:45:30;;;;;;;10.38;6.70;;;13.60;99.90;;;;;;5047973;28;20048;-64
2022/10/10 12:48:11;;;;;;;12.25;6.72;;;13.70;99.90;;;;;;5065447;28;20033;-65
2022/10/10 12:50:40;;;;;;;10.30;7.18;;;13.80;99.90;;;;;;5065867;28;20119;-65
2022/10/10 12:53:18;;;;;;;14.52;7.65;;;13.80;99.90;;;;;;5058322;28;20076;-65
2022/10/10 12:55:47;;;;;;;13.63;8.05;;;13.70;99.90;;;;;;5049767;28;20037;-65
2022/10/10 12:58:23;;;;;;;13.63;7.78;;;13.60;99.90;;;;;;5046819;28;20357;-64
2022/10/10 13:00:49;;;;;;;12.68;8.55;;;13.50;99.90;;;;;;5052626;28;20125;-64
2022/10/10 13:03:15;;;;;;;17.30;9.15;;;13.40;99.90;;;;;;5067441;28;20056;-63
2022/10/10 13:05:41;;;;;;;15.82;8.05;;;13.30;99.90;;;;;;5055334;28;20546;-64
2022/10/10 13:08:12;;;;;;;15.40;8.32;;;13.20;99.90;;;;;;5056898;28;20047;-64